Flight Track Log - Related Links

Times and Time Zones

All times are in EDT time to prevent confusion due to time zone crossing. See the SWA714 flight status page for this flight to view local times or setup timezone preferences in your user account.

Time Position Orientation Groundspeed Altitude Reporting Facility
EDT Latitude Longitude Course Direction KTS MPH feet Rate Location/Type
Fri 10:43:58 AM 33.6883 -101.8319 358° North 154 177 4,100  Level Fort Worth Center
Fri 10:44:16 AM 33.7008 -101.8325 358° North 163 188 4,700 2,127 Climbing Fort Worth Center
Fri 10:45:17 AM 33.7503 -101.7900 36° Northeast 255 293 6,900 2,579 Climbing Fort Worth Center
Fri 10:46:03 AM 33.7797 -101.7289 60° Northeast 279 321 9,300 2,943 Climbing Fort Worth Center
Fri 10:47:03 AM 33.8136 -101.6508 62° Northeast 279 321 12,100 2,700 Climbing Fort Worth Center
Fri 10:48:03 AM 33.8567 -101.5453 64° Northeast 304 350 14,700 2,400 Climbing Fort Worth Center
Fri 10:49:03 AM 33.8933 -101.4444 66° East 344 396 16,900 2,350 Climbing Fort Worth Center
Fri 10:50:03 AM 33.9061 -101.3025 84° East 381 438 19,400 2,500 Climbing Fort Worth Center
Fri 10:51:03 AM 33.9144 -101.1750 85° East 387 445 21,900 2,100 Climbing Fort Worth Center
Fri 10:52:03 AM 33.9225 -101.0353 86° East 407 468 23,600 1,750 Climbing Fort Worth Center
Fri 10:53:03 AM 33.9286 -100.8931 87° East 412 474 25,400 1,800 Climbing Fort Worth Center
Fri 10:54:03 AM 33.9392 -100.7431 85° East 429 494 27,200 1,550 Climbing Fort Worth Center
Fri 10:55:03 AM 33.9428 -100.5981 88° East 437 503 28,500 1,350 Climbing Fort Worth Center
Fri 10:56:03 AM 33.9531 -100.4408 85° East 448 516 29,900 1,350 Climbing Fort Worth Center
Fri 10:57:03 AM 33.9608 -100.2808 87° East 459 528 31,200 1,250 Climbing Fort Worth Center
Fri 10:58:03 AM 33.9667 -100.1231 87° East 466 536 32,400 1,350 Climbing Fort Worth Center
Fri 10:59:03 AM 33.9761 -99.9631 86° East 471 542 33,900 1,050 Climbing Fort Worth Center
Fri 11:00:03 AM 33.9836 -99.8006 87° East 477 549 34,500 550 Climbing Fort Worth Center
Fri 11:01:03 AM 33.9908 -99.6328 87° East 488 562 35,000 250 Climbing Fort Worth Center
Fri 11:02:03 AM 33.9917 -99.4625 90° East 493 567 35,000 -250 Level Fort Worth Center
Fri 11:03:03 AM 33.9503 -99.3014 107° East 503 579 34,500 -750 Descending Fort Worth Center
Fri 11:04:03 AM 33.9047 -99.1403 109° East 503 579 33,500 -1,100 Descending Fort Worth Center
Fri 11:05:03 AM 33.8650 -98.9869 107° East 491 565 32,300 -1,100 Descending Fort Worth Center
Fri 11:06:03 AM 33.8250 -98.8411 108° East 479 551 31,300 -900 Descending Fort Worth Center
Fri 11:07:03 AM 33.7908 -98.7106 107° East 459 528 30,500 -1,050 Descending Fort Worth Center
Fri 11:08:03 AM 33.7464 -98.5625 110° East 464 534 29,200 -1,900 Descending Fort Worth Center
Fri 11:09:03 AM 33.7000 -98.3972 109° East 477 549 26,700 -3,050 Descending Fort Worth Center
Fri 11:10:03 AM 33.6342 -98.2567 119° Southeast 466 536 23,100 -3,650 Descending Fort Worth Center
Fri 11:11:03 AM 33.5703 -98.1214 120° Southeast 466 536 19,400 -2,100 Descending Fort Worth Center
Fri 11:12:03 AM 33.5061 -97.9914 121° Southeast 471 542 18,900 -1,100 Descending Fort Worth Center
Fri 11:13:03 AM 33.4525 -97.8839 121° Southeast 430 495 17,200 -1,850 Descending Fort Worth Center
Fri 11:14:03 AM 33.3903 -97.7567 120° Southeast 410 472 15,200 -1,900 Descending Fort Worth Center
Fri 11:15:03 AM 33.3444 -97.6597 119° Southeast 386 444 13,400 -1,900 Descending Fort Worth Center
Fri 11:16:03 AM 33.2947 -97.5528 119° Southeast 371 427 11,400 -1,200 Descending Fort Worth Center
Fri 11:17:03 AM 33.2217 -97.4533 131° Southeast 359 413 11,000 -200 Descending Fort Worth Center
Fri 11:18:03 AM 33.1547 -97.3761 136° Southeast 359 413 11,000  Level Fort Worth Center
Fri 11:19:03 AM 33.0714 -97.2772 135° Southeast 374 430 11,000 -50 Level Fort Worth Center
Fri 11:20:03 AM 32.9981 -97.1931 136° Southeast 374 430 10,900 -650 Descending Fort Worth Center
Fri 11:21:03 AM 32.9394 -97.1139 131° Southeast 335 386 9,700 -1,500 Descending Fort Worth Center
Fri 11:21:35 AM 32.9167 -97.0833 132° Southeast 292 336 8,600 -1,226 Descending Dallas / Fort Worth TRACON
Fri 11:22:36 AM 32.8667 -97.0167 132° Southeast 263 303 7,800 -1,240 Descending Dallas / Fort Worth TRACON
Fri 11:23:36 AM 32.8167 -96.9333 126° Southeast 264 304 6,100 -1,450 Descending Dallas / Fort Worth TRACON
Fri 11:24:36 AM 32.7667 -96.8667 132° Southeast 266 306 4,900 -1,000 Descending Dallas / Fort Worth TRACON
Fri 11:25:36 AM 32.7167 -96.8000 132° Southeast 234 269 4,100 -950 Descending Dallas / Fort Worth TRACON
Fri 11:26:36 AM 32.7333 -96.7500 68° East 199 229 3,000 -942 Descending Dallas / Fort Worth TRACON
Fri 11:27:37 AM 32.7667 -96.7667 337° Northwest 163 188 2,200 -645 Descending Dallas / Fort Worth TRACON
Fri 11:28:37 AM 32.8000 -96.8000 320° Northwest 137 158 1,700 -600 Descending Dallas / Fort Worth TRACON
Fri 11:29:37 AM 32.8167 -96.8333 301° West 125 144 1,000 -700 Descending Dallas / Fort Worth TRACON

Login

Don't have an account? Register now (free) for customized features, flight alerts, and more!